Time;durP1;ratioP1;P1;durP2;ratioP2;P2;SDS_P1;SDS_P2;PMS_P1;PMS_P2;Temp;Humidity;BMP_temperature;BMP_pressure;BME280_temperature;BME280_humidity;BME280_pressure;Samples;Min_cycle;Max_cycle;Signal;HPM_P1;HPM_P2
2021/05/02 00:00:30;;;;;;;48.60;39.55;;;;;;;10.49;68.71;99430.16;5059525;27;97305;-83
2021/05/02 00:02:57;;;;;;;47.40;39.35;;;;;;;10.48;68.49;99415.34;5059038;27;98547;-84
2021/05/02 00:05:25;;;;;;;47.05;40.05;;;;;;;10.61;68.08;99436.59;5059535;27;97498;-84
2021/05/02 00:07:51;;;;;;;48.20;38.80;;;;;;;10.58;68.08;99436.75;5076974;27;96727;-83
2021/05/02 00:10:18;;;;;;;48.58;39.53;;;;;;;10.56;68.32;99428.97;5032925;27;97050;-83
2021/05/02 00:12:45;;;;;;;49.53;40.33;;;;;;;10.60;68.30;99440.16;5038512;27;101791;-83
2021/05/02 00:15:13;;;;;;;52.83;39.85;;;;;;;10.60;68.64;99443.63;5049421;27;100514;-83
2021/05/02 00:17:41;;;;;;;46.55;38.25;;;;;;;10.62;68.26;99433.06;5040041;27;97012;-84
2021/05/02 00:20:08;;;;;;;52.85;40.65;;;;;;;10.61;67.95;99432.19;5049447;27;97518;-84
2021/05/02 00:22:34;;;;;;;46.97;39.13;;;;;;;10.56;68.06;99428.97;5035761;27;100702;-84
2021/05/02 00:25:03;;;;;;;51.58;40.90;;;;;;;10.54;68.04;99430.81;5038481;27;101598;-83
2021/05/02 00:27:29;;;;;;;51.03;41.45;;;;;;;10.55;68.03;99427.25;5038874;27;96720;-84
2021/05/02 00:29:55;;;;;;;50.97;40.10;;;;;;;10.55;68.05;99431.66;5049684;27;96729;-83
2021/05/02 00:32:22;;;;;;;52.20;41.33;;;;;;;10.50;68.69;99423.13;5028352;27;101017;-83
2021/05/02 00:34:48;;;;;;;50.42;41.33;;;;;;;10.48;68.94;99420.59;5030325;27;101578;-84
2021/05/02 00:37:13;;;;;;;51.55;41.60;;;;;;;10.56;68.31;99415.84;5036101;27;96791;-84
2021/05/02 00:39:40;;;;;;;52.70;41.85;;;;;;;10.52;68.36;99414.28;5053247;27;99477;-84
2021/05/02 00:42:07;;;;;;;51.00;41.95;;;;;;;10.45;68.73;99391.03;5052467;27;101167;-84
2021/05/02 00:44:46;;;;;;;51.53;42.58;;;;;;;10.46;68.96;99384.88;5049196;27;99022;-84
2021/05/02 00:47:16;;;;;;;54.00;43.22;;;;;;;10.44;69.08;99366.56;5058820;27;97147;-83
2021/05/02 00:49:57;;;;;;;53.63;43.55;;;;;;;10.40;69.35;99362.41;5075587;27;97315;-83
2021/05/02 00:52:28;;;;;;;53.57;42.70;;;;;;;10.41;69.69;99361.47;5041695;27;101377;-83
2021/05/02 00:54:56;;;;;;;;;;;;;;;10.40;69.23;99354.53;5059072;27;101260;-83
2021/05/02 00:57:31;;;;;;;63.80;43.00;;;;;;;10.40;70.07;99350.13;5076226;27;97156;-83
2021/05/02 01:00:15;;;;;;;51.47;42.72;;;;;;;10.41;70.30;99338.72;5037970;27;97341;-83
2021/05/02 01:02:42;;;;;;;55.60;43.28;;;;;;;10.31;70.39;99320.88;5058473;27;97703;-82
2021/05/02 01:05:10;;;;;;;56.47;45.25;;;;;;;10.24;70.63;99308.94;5058143;27;101934;-83
2021/05/02 01:07:45;;;;;;;57.75;44.53;;;;;;;10.26;70.90;99304.47;5037600;27;97185;-84
2021/05/02 01:10:13;;;;;;;55.58;43.10;;;;;;;10.23;71.01;99297.59;5048558;27;97033;-84
2021/05/02 01:12:44;;;;;;;54.65;43.85;;;;;;;10.11;71.38;99271.97;5027903;27;101807;-84
2021/05/02 01:15:12;;;;;;;57.97;44.38;;;;;;;10.00;71.83;99261.16;5042278;27;101679;-84
2021/05/02 01:17:42;;;;;;;57.88;45.80;;;;;;;10.06;72.05;99256.47;5057593;27;97213;-85
2021/05/02 01:20:10;;;;;;;53.22;42.25;;;;;;;10.09;71.69;99256.31;5076279;27;96912;-84
2021/05/02 01:22:38;;;;;;;53.60;42.83;;;;;;;10.08;71.80;99241.50;5034382;27;101241;-85
2021/05/02 01:25:04;;;;;;;49.53;41.78;;;;;;;10.11;71.75;99238.72;5054427;27;101349;-84
2021/05/02 01:27:32;;;;;;;53.03;43.95;;;;;;;10.16;72.19;99243.75;5020085;27;97005;-84
2021/05/02 01:29:59;;;;;;;58.63;46.15;;;;;;;10.09;72.56;99251.06;5032059;27;96861;-84
2021/05/02 01:32:26;;;;;;;60.97;46.63;;;;;;;10.09;72.63;99264.16;5075060;27;97859;-85
2021/05/02 01:34:52;;;;;;;55.60;43.90;;;;;;;10.07;72.29;99262.56;5041559;27;101000;-84
2021/05/02 01:37:19;;;;;;;52.78;43.05;;;;;;;10.07;72.56;99270.44;5053691;27;97291;-84
2021/05/02 01:39:45;;;;;;;55.83;43.00;;;;;;;10.00;73.17;99263.78;5028760;27;96807;-84
2021/05/02 01:42:11;;;;;;;52.63;43.45;;;;;;;10.01;72.86;99263.72;5044861;27;101425;-84
2021/05/02 01:44:37;;;;;;;54.38;43.88;;;;;;;9.99;73.00;99255.06;5028671;27;99821;-85
2021/05/02 01:47:09;;;;;;;53.00;42.47;;;;;;;10.13;72.44;99244.75;5056243;27;97063;-84
2021/05/02 01:49:40;;;;;;;52.47;43.70;;;;;;;10.04;72.69;99237.34;5057837;27;96840;-84
2021/05/02 01:52:07;;;;;;;52.65;41.60;;;;;;;10.09;72.83;99224.84;5034770;27;101247;-84
2021/05/02 01:54:35;;;;;;;53.50;42.70;;;;;;;10.11;72.86;99215.13;5033904;27;101424;-84
2021/05/02 01:57:01;;;;;;;50.30;43.25;;;;;;;10.13;72.86;99186.22;5068584;27;96995;-84
2021/05/02 01:59:27;;;;;;;50.92;41.25;;;;;;;10.05;73.40;99177.88;5035162;27;97060;-85
2021/05/02 02:01:52;;;;;;;51.20;42.95;;;;;;;10.04;73.48;99168.34;5038262;27;101634;-85
2021/05/02 02:04:19;;;;;;;52.65;42.53;;;;;;;9.93;73.37;99151.34;5031562;27;100406;-84
2021/05/02 02:06:45;;;;;;;54.30;42.63;;;;;;;9.95;73.97;99159.16;5039906;27;97164;-84
2021/05/02 02:09:11;;;;;;;51.42;42.08;;;;;;;9.97;74.03;99158.13;5058679;27;96807;-84
2021/05/02 02:11:37;;;;;;;48.92;40.97;;;;;;;9.98;73.97;99161.63;5054408;27;101324;-85
2021/05/02 02:14:04;;;;;;;49.45;41.97;;;;;;;9.94;73.95;99152.19;5054857;27;98336;-84
2021/05/02 02:16:29;;;;;;;51.88;42.00;;;;;;;9.97;74.06;99129.28;5037138;27;97462;-84
2021/05/02 02:18:55;;;;;;;52.40;41.90;;;;;;;9.94;73.84;99121.59;5055631;27;97221;-85
2021/05/02 02:21:23;;;;;;;50.25;41.95;;;;;;;9.86;74.33;99113.28;5033890;27;101931;-85
2021/05/02 02:24:11;;;;;;;54.40;42.60;;;;;;;9.82;74.29;99111.72;5022507;27;100699;-84
2021/05/02 02:26:56;;;;;;;54.42;41.92;;;;;;;9.78;74.63;99097.09;5058127;27;97092;-84
2021/05/02 02:29:22;;;;;;;54.53;43.45;;;;;;;9.87;74.35;99101.03;5058478;27;97084;-84
2021/05/02 02:31:50;;;;;;;49.38;41.92;;;;;;;9.92;74.30;99105.09;5056621;27;101692;-84
2021/05/02 02:34:16;;;;;;;53.58;43.13;;;;;;;9.84;73.98;99095.94;5037450;27;100067;-84
2021/05/02 02:36:43;;;;;;;53.10;42.85;;;;;;;9.83;74.13;99095.09;5020023;27;97019;-85
2021/05/02 02:39:09;;;;;;;50.35;42.60;;;;;;;9.90;73.90;99087.75;5027715;27;96933;-84
2021/05/02 02:41:39;;;;;;;52.75;42.75;;;;;;;9.94;74.51;99086.66;5055574;27;101593;-84
2021/05/02 02:44:07;;;;;;;52.38;43.05;;;;;;;9.96;74.36;99092.69;5057931;27;100298;-84
2021/05/02 02:46:37;;;;;;;53.95;43.20;;;;;;;10.03;73.94;99108.94;5055747;27;97025;-84
2021/05/02 02:49:05;;;;;;;51.70;42.95;;;;;;;10.08;73.99;99096.44;5040097;27;97346;-85
2021/05/02 02:51:30;;;;;;;53.67;43.53;;;;;;;10.07;73.69;99074.63;5038586;27;99805;-84
2021/05/02 02:53:57;;;;;;;56.45;45.15;;;;;;;9.94;73.99;99061.28;5040856;27;100098;-84
2021/05/02 02:56:23;;;;;;;59.03;45.13;;;;;;;9.92;74.57;99054.47;5052679;27;97015;-85
2021/05/02 02:58:52;;;;;;;52.72;44.53;;;;;;;9.90;74.77;99053.69;5023592;27;96927;-85
2021/05/02 03:01:17;;;;;;;52.55;44.53;;;;;;;9.98;74.70;99054.13;5041212;27;99724;-85
2021/05/02 03:03:44;;;;;;;54.80;43.80;;;;;;;10.02;74.19;99075.78;5030143;27;99629;-84
2021/05/02 03:06:11;;;;;;;52.33;44.63;;;;;;;10.08;74.07;99091.22;5038116;27;96783;-84
2021/05/02 03:08:39;;;;;;;50.47;41.63;;;;;;;10.02;74.55;99081.88;5033454;27;96953;-85
2021/05/02 03:11:08;;;;;;;49.75;41.05;;;;;;;10.14;73.85;99072.53;5054015;27;98455;-85
2021/05/02 03:13:35;;;;;;;52.13;43.22;;;;;;;10.21;73.84;99079.16;5033869;27;101668;-85
2021/05/02 03:16:02;;;;;;;48.28;39.35;;;;;;;10.19;74.30;99074.00;5061568;27;97038;-84
2021/05/02 03:18:33;;;;;;;50.17;41.67;;;;;;;10.09;74.34;99066.66;5043944;27;97133;-85
2021/05/02 03:21:09;;;;;;;55.72;43.83;;;;;;;10.02;74.38;99045.19;5056664;27;101332;-85
2021/05/02 03:23:38;;;;;;;50.35;41.17;;;;;;;10.02;74.71;99037.31;5052313;27;101336;-85
2021/05/02 03:26:06;;;;;;;48.92;41.00;;;;;;;9.98;74.90;99033.16;5027514;27;96757;-84
2021/05/02 03:28:35;;;;;;;50.92;41.38;;;;;;;9.95;74.52;99035.94;5047382;27;96770;-84
2021/05/02 03:31:03;;;;;;;47.60;39.20;;;;;;;10.02;74.41;99044.34;5036580;27;100930;-84
2021/05/02 03:33:33;;;;;;;44.85;37.92;;;;;;;10.02;74.19;99042.56;5053220;27;100101;-85
2021/05/02 03:36:00;;;;;;;45.50;36.83;;;;;;;10.08;74.11;99044.84;5065190;27;96803;-84
2021/05/02 03:38:31;;;;;;;45.53;37.40;;;;;;;10.08;74.16;99034.38;5046768;27;96756;-84
2021/05/02 03:40:59;;;;;;;46.30;37.53;;;;;;;10.03;74.88;99030.28;5039773;27;100505;-84
2021/05/02 03:43:24;;;;;;;46.03;37.03;;;;;;;9.97;74.88;99015.72;5055343;27;98337;-84
2021/05/02 03:45:50;;;;;;;42.38;36.33;;;;;;;9.98;74.48;99025.31;5055703;27;96716;-84
2021/05/02 03:48:15;;;;;;;41.50;35.35;;;;;;;9.99;74.60;99011.25;5053349;27;96957;-84
2021/05/02 03:50:41;;;;;;;41.40;35.42;;;;;;;9.98;75.14;99015.66;5034214;27;101007;-83
2021/05/02 03:53:08;;;;;;;42.13;34.72;;;;;;;10.01;74.91;99011.19;5032966;27;101413;-83
2021/05/02 03:55:44;;;;;;;40.28;33.88;;;;;;;10.08;74.84;99007.31;5039287;27;97188;-84
2021/05/02 03:58:14;;;;;;;40.35;34.20;;;;;;;10.15;74.31;99006.03;5040040;27;96863;-83
2021/05/02 04:00:40;;;;;;;36.30;31.30;;;;;;;10.22;74.59;99002.19;5032542;27;101367;-83
2021/05/02 04:03:07;;;;;;;41.80;33.30;;;;;;;10.22;74.10;99017.91;5060569;27;97882;-83
2021/05/02 04:05:34;;;;;;;41.13;31.90;;;;;;;10.26;73.82;99026.47;5048399;27;96767;-83
2021/05/02 04:07:59;;;;;;;33.08;28.77;;;;;;;10.26;73.92;99022.06;5039178;27;97327;-83
2021/05/02 04:10:25;;;;;;;34.85;29.75;;;;;;;10.18;73.81;99009.38;5059112;27;101234;-84
2021/05/02 04:12:51;;;;;;;33.72;28.15;;;;;;;10.18;74.38;98996.25;5059172;27;97618;-83
2021/05/02 04:15:17;;;;;;;31.75;27.73;;;;;;;10.21;73.45;99008.38;5042898;27;96996;-84
2021/05/02 04:17:43;;;;;;;31.42;27.00;;;;;;;10.29;73.90;99032.41;5042279;27;97032;-84
2021/05/02 04:20:09;;;;;;;33.10;26.92;;;;;;;10.32;73.96;99055.84;5048516;27;101382;-84
2021/05/02 04:22:35;;;;;;;28.40;25.02;;;;;;;10.34;73.85;99075.00;5074171;27;98200;-85
2021/05/02 04:25:01;;;;;;;28.10;25.10;;;;;;;10.28;73.42;99067.44;5030912;27;96951;-85
2021/05/02 04:27:26;;;;;;;30.15;24.90;;;;;;;10.35;74.02;99066.19;5041355;27;96862;-85
2021/05/02 04:29:52;;;;;;;29.25;22.70;;;;;;;10.40;73.49;99052.84;5041616;27;100911;-85
2021/05/02 04:32:18;;;;;;;29.20;23.08;;;;;;;10.40;73.53;99050.22;5043063;27;99980;-86
2021/05/02 04:34:43;;;;;;;24.45;21.80;;;;;;;10.34;73.71;99047.91;5048090;27;97136;-86
2021/05/02 04:37:09;;;;;;;27.80;20.98;;;;;;;10.36;73.58;99035.56;5052371;27;97093;-85
2021/05/02 04:39:34;;;;;;;24.67;19.95;;;;;;;10.39;73.20;99038.03;5049708;27;98440;-85
2021/05/02 04:42:00;;;;;;;28.55;20.55;;;;;;;10.39;72.88;99053.78;5024603;27;101242;-85
2021/05/02 04:44:26;;;;;;;24.00;19.08;;;;;;;10.43;72.80;99044.81;5030137;27;97168;-85
2021/05/02 04:46:53;;;;;;;21.98;19.00;;;;;;;10.46;72.39;99043.78;5058537;27;97265;-83
2021/05/02 04:49:20;;;;;;;20.13;17.85;;;;;;;10.45;72.40;99034.25;5057605;27;101776;-84
2021/05/02 04:51:47;;;;;;;21.85;18.23;;;;;;;10.38;73.05;99026.69;5054850;27;98373;-84
2021/05/02 04:54:12;;;;;;;20.30;18.10;;;;;;;10.27;73.10;99005.44;5039024;27;96850;-84
2021/05/02 04:56:39;;;;;;;22.17;16.95;;;;;;;10.04;73.95;98997.91;5036318;27;96949;-84
2021/05/02 04:59:05;;;;;;;21.02;17.40;;;;;;;9.93;73.67;98974.88;5058967;27;98229;-84
2021/05/02 05:01:32;;;;;;;20.20;16.20;;;;;;;10.03;73.64;98967.38;5059200;27;97969;-84
2021/05/02 05:03:57;;;;;;;21.23;15.90;;;;;;;9.94;74.03;98969.53;5030795;27;96633;-84
2021/05/02 05:06:24;;;;;;;16.63;14.73;;;;;;;9.91;74.00;98969.72;5039572;27;96760;-84
2021/05/02 05:08:50;;;;;;;17.88;14.95;;;;;;;9.96;73.96;98972.94;5038598;27;98245;-85
2021/05/02 05:11:15;;;;;;;17.85;14.75;;;;;;;9.88;73.90;98971.66;5035278;27;101577;-84
2021/05/02 05:13:41;;;;;;;14.85;13.35;;;;;;;9.87;73.90;98975.22;5041649;27;97032;-84
2021/05/02 05:16:07;;;;;;;14.93;13.00;;;;;;;9.84;74.00;98970.97;5059246;27;97072;-84
2021/05/02 05:18:32;;;;;;;15.55;13.25;;;;;;;9.83;74.19;98981.53;5041749;27;101122;-85
2021/05/02 05:20:59;;;;;;;15.60;12.63;;;;;;;9.86;73.92;98983.97;5041598;27;101282;-85
2021/05/02 05:23:25;;;;;;;12.95;11.52;;;;;;;9.97;73.41;98994.75;5047550;27;96750;-84
2021/05/02 05:25:53;;;;;;;12.40;11.00;;;;;;;10.02;72.99;98989.28;5039009;27;96869;-84
2021/05/02 05:28:18;;;;;;;12.38;10.63;;;;;;;9.94;73.23;98961.69;5063839;27;98175;-85
2021/05/02 05:30:44;;;;;;;10.60;9.18;;;;;;;9.98;73.14;98957.16;5051078;27;101145;-85
2021/05/02 05:33:10;;;;;;;11.52;9.55;;;;;;;9.87;73.83;98936.72;5058005;27;97093;-85
2021/05/02 05:35:37;;;;;;;10.25;8.27;;;;;;;9.78;73.95;98904.94;5044468;27;96901;-85
2021/05/02 05:38:04;;;;;;;9.90;7.80;;;;;;;9.77;74.19;98896.19;5076001;27;98408;-85
2021/05/02 05:40:30;;;;;;;10.20;8.27;;;;;;;9.77;73.70;98874.41;5057068;27;100207;-84
2021/05/02 05:42:56;;;;;;;10.18;7.88;;;;;;;9.79;73.68;98860.28;5045828;27;96760;-85
2021/05/02 05:45:22;;;;;;;10.52;6.95;;;;;;;9.84;73.84;98853.03;5040035;27;96763;-83
2021/05/02 05:47:50;;;;;;;8.82;6.95;;;;;;;9.79;73.64;98841.09;5020260;27;101718;-83
2021/05/02 05:50:16;;;;;;;8.82;7.18;;;;;;;9.66;74.13;98830.44;5049102;27;100087;-83
2021/05/02 05:52:42;;;;;;;10.88;6.32;;;;;;;9.70;74.45;98826.72;5033780;27;96796;-83
2021/05/02 05:55:09;;;;;;;9.77;7.20;;;;;;;9.68;74.36;98820.72;5050980;27;97216;-82
2021/05/02 05:57:36;;;;;;;8.60;6.75;;;;;;;9.61;74.59;98821.97;5038922;27;101538;-83
2021/05/02 06:00:02;;;;;;;9.02;7.38;;;;;;;9.64;74.31;98814.78;5047500;27;97353;-83
2021/05/02 06:02:38;;;;;;;8.93;7.00;;;;;;;9.66;73.90;98823.44;5043711;27;97630;-83
2021/05/02 06:05:05;;;;;;;10.27;7.25;;;;;;;9.64;74.25;98820.03;5053649;27;96950;-83
2021/05/02 06:07:30;;;;;;;8.60;7.25;;;;;;;9.63;74.26;98814.88;5048868;27;98118;-83
2021/05/02 06:09:56;;;;;;;8.75;6.40;;;;;;;9.68;74.01;98815.47;5045540;27;98263;-83
2021/05/02 06:12:22;;;;;;;7.30;6.47;;;;;;;9.57;73.56;98810.84;5048689;27;97300;-85
2021/05/02 06:14:48;;;;;;;10.50;7.45;;;;;;;9.54;73.93;98808.38;5037119;27;97365;-84
2021/05/02 06:17:13;;;;;;;10.80;6.90;;;;;;;9.53;74.44;98817.16;5069370;27;102285;-85
2021/05/02 06:19:39;;;;;;;12.13;6.88;;;;;;;9.52;74.30;98823.31;5053640;27;98435;-86
2021/05/02 06:22:05;;;;;;;9.55;7.00;;;;;;;9.55;74.16;98811.84;5038841;27;96861;-84
2021/05/02 06:24:31;;;;;;;8.13;6.60;;;;;;;9.57;74.00;98823.06;5054492;27;96937;-85
2021/05/02 06:26:57;;;;;;;7.95;6.35;;;;;;;9.61;73.50;98816.75;5057197;27;99880;-85
2021/05/02 06:29:22;;;;;;;7.20;5.90;;;;;;;9.63;73.55;98820.09;5053940;27;97629;-85
2021/05/02 06:31:48;;;;;;;7.65;6.38;;;;;;;9.65;73.34;98818.25;5052675;27;96818;-85
2021/05/02 06:34:14;;;;;;;7.55;6.00;;;;;;;9.68;73.64;98818.09;5047294;27;99142;-84
2021/05/02 06:36:41;;;;;;;8.15;6.28;;;;;;;9.70;73.62;98824.94;5047884;27;100994;-85
2021/05/02 06:39:08;;;;;;;7.82;6.30;;;;;;;9.68;73.30;98818.94;5052801;27;101074;-85
2021/05/02 06:41:33;;;;;;;6.97;5.60;;;;;;;9.81;72.86;98831.38;5032749;27;98070;-85
2021/05/02 06:44:01;;;;;;;7.22;5.35;;;;;;;9.82;73.24;98833.06;5058094;27;97117;-84
2021/05/02 06:46:28;;;;;;;6.50;5.47;;;;;;;9.81;73.20;98827.00;5043979;27;101637;-85
2021/05/02 06:49:04;;;;;;;6.93;5.38;;;;;;;9.85;73.28;98843.38;5042972;27;101255;-85
2021/05/02 06:51:30;;;;;;;6.72;4.90;;;;;;;9.85;72.99;98846.84;5046747;27;96981;-85
2021/05/02 06:53:56;;;;;;;6.78;4.90;;;;;;;9.90;72.49;98851.84;5040307;27;97353;-85
2021/05/02 06:56:22;;;;;;;6.78;5.00;;;;;;;9.91;72.24;98843.03;5046350;27;99828;-84
2021/05/02 06:58:49;;;;;;;5.80;5.20;;;;;;;9.83;72.33;98850.47;5063254;27;98329;-85
2021/05/02 07:01:15;;;;;;;7.00;5.68;;;;;;;9.83;72.57;98843.50;5067950;27;96912;-86
2021/05/02 07:03:41;;;;;;;6.97;5.43;;;;;;;9.89;72.74;98850.13;5053636;27;96843;-85
2021/05/02 07:06:06;;;;;;;7.45;6.22;;;;;;;9.94;72.61;98832.41;5069856;27;98231;-85
2021/05/02 07:08:32;;;;;;;6.90;5.38;;;;;;;9.96;72.11;98827.91;5043368;27;101314;-84
2021/05/02 07:10:58;;;;;;;5.25;4.50;;;;;;;9.96;72.72;98830.53;5041489;27;96726;-84
2021/05/02 07:13:24;;;;;;;5.93;4.60;;;;;;;9.95;72.32;98827.09;5069103;27;97217;-85
2021/05/02 07:15:50;;;;;;;5.82;4.65;;;;;;;9.94;72.67;98828.00;5040061;27;100284;-85
2021/05/02 07:18:16;;;;;;;4.95;4.45;;;;;;;9.99;72.12;98825.13;5056479;27;101300;-86
2021/05/02 07:20:42;;;;;;;6.97;5.65;;;;;;;9.95;71.85;98823.63;5051270;27;97129;-85
2021/05/02 07:23:08;;;;;;;6.82;5.05;;;;;;;9.92;72.04;98821.16;5057083;27;96763;-85
2021/05/02 07:25:34;;;;;;;6.63;5.47;;;;;;;9.92;72.42;98823.78;5047690;27;101622;-85
2021/05/02 07:27:59;;;;;;;6.57;5.25;;;;;;;9.94;71.94;98825.38;5050405;27;98417;-84
2021/05/02 07:30:25;;;;;;;5.50;4.70;;;;;;;9.94;72.08;98821.91;5053116;27;96713;-85
2021/05/02 07:32:51;;;;;;;5.63;4.53;;;;;;;10.01;71.76;98820.66;5036101;27;97027;-85
2021/05/02 07:35:17;;;;;;;7.07;5.30;;;;;;;9.98;72.09;98816.44;5066648;27;101120;-85
2021/05/02 07:37:42;;;;;;;6.47;5.20;;;;;;;10.04;71.88;98815.25;5050956;27;101420;-85
2021/05/02 07:40:09;;;;;;;6.10;5.03;;;;;;;10.01;72.47;98818.03;5049549;27;97289;-85
2021/05/02 07:42:35;;;;;;;7.10;4.90;;;;;;;9.98;72.52;98818.22;5033929;27;97287;-85
2021/05/02 07:45:01;;;;;;;8.75;5.80;;;;;;;10.02;72.06;98813.63;5053423;27;97974;-85
2021/05/02 07:47:26;;;;;;;5.05;4.50;;;;;;;9.99;72.27;98814.66;5050510;27;100967;-84
2021/05/02 07:49:52;;;;;;;9.95;6.63;;;;;;;9.99;72.37;98814.66;5027915;27;97482;-85
2021/05/02 07:52:18;;;;;;;6.43;5.72;;;;;;;9.90;72.69;98813.38;5048993;27;97466;-85
2021/05/02 07:54:44;;;;;;;6.00;5.40;;;;;;;9.97;72.12;98809.47;5047655;27;99761;-86
2021/05/02 07:57:10;;;;;;;7.93;5.63;;;;;;;10.01;72.22;98807.56;5034198;27;101250;-86
2021/05/02 07:59:38;;;;;;;6.03;5.20;;;;;;;10.06;72.01;98808.13;5052324;27;96812;-87
2021/05/02 08:02:08;;;;;;;7.63;5.63;;;;;;;10.11;71.74;98808.72;5044048;27;97629;-84
2021/05/02 08:04:38;;;;;;;6.18;4.95;;;;;;;10.12;71.58;98812.16;5041030;27;99904;-85
2021/05/02 08:07:07;;;;;;;6.07;5.00;;;;;;;10.14;71.54;98818.19;5054133;27;97792;-83
2021/05/02 08:09:33;;;;;;;7.93;5.78;;;;;;;10.17;71.83;98816.22;5071766;27;96755;-84
2021/05/02 08:11:59;;;;;;;6.80;5.70;;;;;;;10.20;71.72;98825.69;5057060;27;96907;-82
2021/05/02 08:14:25;;;;;;;7.43;6.03;;;;;;;10.25;72.02;98822.84;5039939;27;101025;-83
2021/05/02 08:16:50;;;;;;;7.60;6.35;;;;;;;10.22;71.93;98828.25;5036700;27;100881;-84
2021/05/02 08:19:16;;;;;;;8.60;6.22;;;;;;;10.23;71.19;98822.91;5044683;27;98602;-83
2021/05/02 08:21:42;;;;;;;7.32;5.70;;;;;;;10.27;71.63;98829.72;5042650;27;97058;-83
2021/05/02 08:24:07;;;;;;;6.85;5.38;;;;;;;10.27;71.64;98829.72;5064293;27;98432;-82
2021/05/02 08:26:33;;;;;;;9.07;5.60;;;;;;;10.23;71.79;98843.03;5061026;27;101039;-83
2021/05/02 08:28:58;;;;;;;6.28;5.07;;;;;;;10.27;72.03;98855.06;5044199;27;97392;-87
2021/05/02 08:31:24;;;;;;;6.80;5.30;;;;;;;10.30;71.84;98847.06;5054264;27;96857;-85
2021/05/02 08:33:50;;;;;;;6.72;5.38;;;;;;;10.34;71.33;98853.81;5025576;27;99968;-83
2021/05/02 08:36:17;;;;;;;6.93;5.65;;;;;;;10.38;71.33;98857.94;5047002;27;98458;-82
2021/05/02 08:38:43;;;;;;;9.30;6.80;;;;;;;10.43;71.49;98864.63;5047017;27;97129;-87
2021/05/02 08:41:09;;;;;;;8.43;5.60;;;;;;;10.51;70.84;98861.59;5069864;27;97426;-86
2021/05/02 08:43:35;;;;;;;7.65;6.00;;;;;;;10.51;70.75;98869.44;5040363;27;100978;-85
2021/05/02 08:46:01;;;;;;;9.23;5.90;;;;;;;10.46;71.01;98873.28;5026141;27;101450;-84
2021/05/02 08:48:27;;;;;;;6.88;4.70;;;;;;;10.46;70.98;98879.34;5057337;27;96680;-83
2021/05/02 08:50:55;;;;;;;6.10;4.43;;;;;;;10.50;70.78;98880.03;5050903;27;98117;-84
2021/05/02 08:53:21;;;;;;;5.03;4.50;;;;;;;10.51;70.65;98881.72;5050350;27;98483;-83
2021/05/02 08:55:47;;;;;;;6.53;4.45;;;;;;;10.53;71.07;98883.34;5043164;27;101930;-83
2021/05/02 08:58:17;;;;;;;5.70;3.78;;;;;;;10.52;70.99;98886.88;5038580;27;97393;-83
2021/05/02 09:00:43;;;;;;;5.30;4.13;;;;;;;10.51;70.74;98882.56;5071357;27;98181;-84
2021/05/02 09:03:08;;;;;;;6.18;4.22;;;;;;;10.56;70.66;98891.03;5044240;27;98379;-83
2021/05/02 09:05:44;;;;;;;5.72;3.80;;;;;;;10.59;71.19;98892.66;5054191;27;103149;-88
2021/05/02 09:08:16;;;;;;;5.45;4.13;;;;;;;10.60;70.66;98895.16;5043532;27;96787;-85
2021/05/02 09:10:48;;;;;;;4.43;3.60;;;;;;;10.56;71.10;98898.03;5029957;27;97231;-85
2021/05/02 09:13:14;;;;;;;4.03;3.47;;;;;;;10.60;70.89;98896.94;5029812;27;101145;-83
2021/05/02 09:15:40;;;;;;;4.35;3.30;;;;;;;10.57;70.75;98903.22;5052631;27;101365;-85
2021/05/02 09:18:18;;;;;;;4.28;3.38;;;;;;;10.54;70.50;98905.16;5053503;27;97231;-87
2021/05/02 09:20:45;;;;;;;3.53;2.67;;;;;;;10.43;70.95;98905.75;5046396;27;97636;-87
2021/05/02 09:23:12;;;;;;;4.18;2.92;;;;;;;10.43;70.65;98908.38;5047557;27;98938;-87
2021/05/02 09:25:54;;;;;;;4.07;3.03;;;;;;;10.46;70.70;98918.69;5040354;27;99112;-87
2021/05/02 09:28:48;;;;;;;3.72;2.97;;;;;;;10.49;70.81;98921.16;5031678;27;97406;-86
2021/05/02 09:31:18;;;;;;;5.25;3.42;;;;;;;10.55;70.66;98931.31;5060997;27;97709;-85
2021/05/02 09:33:44;;;;;;;3.70;3.05;;;;;;;10.55;70.64;98930.47;5054751;27;101394;-85
2021/05/02 09:36:11;;;;;;;5.35;4.07;;;;;;;10.42;70.88;98923.28;5049639;27;101411;-84
2021/05/02 09:38:38;;;;;;;6.68;3.50;;;;;;;10.42;70.88;98933.78;5072707;27;97017;-91
2021/05/02 09:41:04;;;;;;;6.07;3.40;;;;;;;10.43;71.03;98932.84;5060110;27;96898;-91
2021/05/02 09:43:34;;;;;;;6.43;3.42;;;;;;;10.47;71.46;98945.78;5046933;27;101213;-91
2021/05/02 09:46:34;;;;;;;5.40;3.47;;;;;;;10.51;70.80;98947.31;5066486;27;101033;-85
2021/05/02 09:49:09;;;;;;;4.40;2.58;;;;;;;10.46;70.50;98960.69;5062501;27;96721;-85
2021/05/02 09:51:36;;;;;;;3.58;2.65;;;;;;;10.50;71.02;98972.72;5055899;27;96968;-84
2021/05/02 09:54:06;;;;;;;6.90;3.83;;;;;;;10.53;71.29;98975.16;5028847;27;100785;-84
2021/05/02 09:56:41;;;;;;;4.20;2.53;;;;;;;10.52;70.73;98983.13;5065363;27;101276;-92
2021/05/02 09:59:21;;;;;;;3.03;2.08;;;;;;;10.48;71.29;98982.44;5029706;27;96942;-89
2021/05/02 10:02:11;;;;;;;3.63;2.53;;;;;;;10.57;70.14;98979.31;5067743;27;97252;-89
2021/05/02 10:04:43;;;;;;;4.93;2.63;;;;;;;10.51;71.00;98987.53;5040603;27;100583;-91
2021/05/02 10:07:09;;;;;;;;;;;;;;;10.46;70.89;98992.16;5049259;27;101438;-91
2021/05/02 10:09:35;;;;;;;3.08;2.45;;;;;;;10.43;70.58;98993.16;5057931;27;97393;-91
2021/05/02 10:12:00;;;;;;;3.35;2.30;;;;;;;10.39;71.01;98996.91;5037070;27;96876;-90
2021/05/02 10:14:29;;;;;;;4.05;3.05;;;;;;;10.36;70.81;99001.47;5034430;27;100345;-91
2021/05/02 10:16:55;;;;;;;3.97;3.10;;;;;;;10.32;71.15;98997.31;5046052;27;101514;-90
2021/05/02 10:19:21;;;;;;;3.65;2.67;;;;;;;10.33;71.15;99007.72;5053702;27;96767;-89
2021/05/02 10:21:47;;;;;;;4.35;2.78;;;;;;;10.35;70.93;99024.22;5028842;27;97077;-90
2021/05/02 10:24:15;;;;;;;4.80;3.20;;;;;;;10.33;70.85;99033.97;5049721;27;98197;-90
2021/05/02 10:26:40;;;;;;;4.75;2.95;;;;;;;10.32;71.25;99024.38;5048220;27;101135;-91
2021/05/02 10:29:08;;;;;;;4.07;3.53;;;;;;;10.41;71.17;99030.91;5052489;27;97451;-91
2021/05/02 10:31:40;;;;;;;3.70;3.00;;;;;;;10.45;70.25;99044.72;5035139;27;96880;-81
2021/05/02 10:34:30;;;;;;;3.33;2.78;;;;;;;10.50;70.58;99048.81;5023688;27;102026;-82
2021/05/02 10:37:24;;;;;;;3.47;2.88;;;;;;;10.48;70.02;99053.28;5069196;27;97547;-82
2021/05/02 10:40:03;;;;;;;4.95;3.20;;;;;;;10.46;70.67;99059.53;5068928;27;98444;-82
2021/05/02 10:42:35;;;;;;;4.50;3.10;;;;;;;10.44;70.50;99067.47;5039552;27;98247;-85
2021/05/02 10:45:20;;;;;;;;;;;;;;;10.39;70.71;99072.13;5057580;27;98546;-85
2021/05/02 10:47:46;;;;;;;4.38;2.90;;;;;;;10.33;70.37;99082.97;5059876;27;98332;-86
2021/05/02 10:50:42;;;;;;;5.63;3.17;;;;;;;10.31;70.14;99085.66;5065793;27;96777;-85
2021/05/02 10:53:14;;;;;;;3.08;2.50;;;;;;;10.33;70.35;99088.19;5017645;27;97339;-85
2021/05/02 10:56:06;;;;;;;3.67;2.10;;;;;;;10.35;70.15;99108.16;5037787;27;101672;-86
2021/05/02 10:58:33;;;;;;;;;;;;;;;10.25;69.96;99112.16;5051786;27;101599;-85
2021/05/02 11:01:02;;;;;;;4.35;2.80;;;;;;;10.28;70.21;99119.91;5023761;27;97284;-86
2021/05/02 11:03:37;;;;;;;5.53;2.60;;;;;;;10.22;69.51;99122.81;5055340;27;97128;-89
2021/05/02 11:06:04;;;;;;;3.80;2.40;;;;;;;10.25;68.84;99121.81;5053346;27;101409;-88
2021/05/02 11:08:50;;;;;;;3.53;2.30;;;;;;;10.18;69.38;99126.50;5094985;27;97239;-88
2021/05/02 11:11:31;;;;;;;4.90;2.42;;;;;;;10.22;68.99;99133.31;5053814;27;98063;-82
2021/05/02 11:17:01;;;;;;;3.70;2.63;;;;;;;10.22;68.76;99135.09;5063585;27;99503;-91
2021/05/02 11:19:32;;;;;;;3.00;2.08;;;;;;;10.16;68.47;99150.19;5031425;27;99828;-86
2021/05/02 11:22:01;;;;;;;3.40;2.30;;;;;;;10.15;68.55;99150.25;5043710;27;97281;-87
2021/05/02 11:24:49;;;;;;;4.05;2.10;;;;;;;10.02;68.07;99155.28;5091785;27;97167;-89
2021/05/02 11:27:40;;;;;;;4.97;1.90;;;;;;;10.04;68.84;99163.94;5056655;27;101732;-87
2021/05/02 11:30:13;;;;;;;4.60;2.55;;;;;;;10.18;67.63;99153.59;5078500;27;98375;-88
2021/05/02 11:32:40;;;;;;;3.53;2.25;;;;;;;10.17;68.28;99167.63;5056643;27;96841;-89
2021/05/02 11:35:08;;;;;;;5.88;2.55;;;;;;;10.29;68.19;99171.44;5048974;27;96833;-89